Aviation Digital Data Service (ADDS)

Output produced by TAFs form (1001 UTC 23 April 2017)
found at http://www.aviationweather.gov/adds/tafs/
 
METAR text: RJBE 230900Z 27009KT 9999 FEW035 16/06 Q1017
Conditions at: RJBE (KOBE , JP) observed 0900 UTC 23 April 2017
Temperature: 16.0°C (61°F)
Dewpoint: 6.0°C (43°F) [RH = 51%]
Pressure (altimeter): 30.03 inches Hg (1017.0 mb)
Winds: from the W (270 degrees) at 10 MPH (9 knots; 4.7 m/s)
Visibility: 6 or more miles (10+ km)
Ceiling: at least 12,000 feet AGL
Clouds: few clouds at 3500 feet AGL
Weather: no significant weather observed at this time